Airport View

Enter AWOS ICAO identifier for current METAR.

ex. KFNL

PAAQ 251253Z AUTO 00000KT 4SM BR OVC100 07/06 A2922 RMK AO2 SLP896 T00670056 TSNO

25 Sep 2020 13:06

Frequency: 134.75

Phone: 907-746-6675

Other Area AWOS: PAWS - PABV - PAFR - PAED

TAF PAAQ 251140Z 2512/2612 VRB03KT P6SM -DZ VCFG FEW012 SCT035 BKN060 TEMPO 2512/2516 2SM BR FM251700 15007KT P6SM VCSH OVC050 FM260700 VRB04KT P6SM VCFG SCT004 OVC050